createdAt,value
2019-03-01T00:02:14.603Z,101209.41
2019-03-01T00:05:28.260Z,101207.65
2019-03-01T00:08:32.778Z,101207.22
2019-03-01T00:11:37.924Z,101205.45
2019-03-01T00:15:13.354Z,101204.13
2019-03-01T00:18:15.872Z,101205.00
2019-03-01T00:21:29.099Z,101206.29
2019-03-01T00:25:12.412Z,101198.86
2019-03-01T00:28:29.383Z,101197.12
2019-03-01T00:32:05.915Z,101204.95
2019-03-01T00:35:14.645Z,101200.18
2019-03-01T00:38:40.070Z,101187.91
2019-03-01T00:41:45.793Z,101189.25
2019-03-01T00:44:43.454Z,101186.14
2019-03-01T00:47:14.156Z,101188.33
2019-03-01T00:49:44.465Z,101183.09
2019-03-01T00:52:14.818Z,101183.11
2019-03-01T00:54:45.107Z,101174.38
2019-03-01T00:57:15.401Z,101168.70
2019-03-01T00:59:45.716Z,101166.08
2019-03-01T01:02:16.011Z,101165.67
2019-03-01T01:04:46.280Z,101163.02
2019-03-01T01:07:16.538Z,101156.48
2019-03-01T01:09:46.892Z,101158.66
2019-03-01T01:12:17.131Z,101153.42
2019-03-01T01:14:47.266Z,101147.75
2019-03-01T01:17:17.569Z,101146.44
2019-03-01T01:19:47.816Z,101146.44
2019-03-01T01:22:18.007Z,101146.84
2019-03-01T01:24:48.242Z,101146.41
2019-03-01T01:27:18.403Z,101145.08
2019-03-01T01:29:48.647Z,101144.66
2019-03-01T01:32:18.872Z,101145.52
2019-03-01T01:34:49.310Z,101144.22
2019-03-01T01:37:19.535Z,101139.86
2019-03-01T01:39:49.845Z,101140.72
2019-03-01T01:42:20.044Z,101140.72
2019-03-01T01:44:50.293Z,101143.77
2019-03-01T01:47:20.575Z,101149.00
2019-03-01T01:49:50.847Z,101155.12
2019-03-01T01:52:21.189Z,101155.53
2019-03-01T01:54:51.480Z,101163.83
2019-03-01T01:57:22.017Z,101158.57
2019-03-01T01:59:52.222Z,101160.73
2019-03-01T02:02:22.559Z,101159.42
2019-03-01T02:04:52.925Z,101156.78
2019-03-01T02:07:23.282Z,101158.53
2019-03-01T02:09:53.511Z,101153.69
2019-03-01T02:12:23.667Z,101159.36
2019-03-01T02:14:54.737Z,101163.73
2019-03-01T02:17:24.834Z,101157.61
2019-03-01T02:19:55.056Z,101160.67
2019-03-01T02:22:25.199Z,101161.53
2019-03-01T02:24:55.316Z,101158.45
2019-03-01T02:27:30.253Z,101161.94
2019-03-01T02:30:02.036Z,101162.38
2019-03-01T02:32:44.635Z,101153.62
2019-03-01T02:35:26.193Z,101153.22
2019-03-01T02:37:56.412Z,101151.44
2019-03-01T02:40:26.641Z,101150.95
2019-03-01T02:42:56.797Z,101154.86
2019-03-01T02:45:27.084Z,101153.14
2019-03-01T02:47:57.236Z,101145.23
2019-03-01T02:50:27.522Z,101150.05
2019-03-01T02:52:57.688Z,101146.12
2019-03-01T02:55:27.832Z,101145.22
2019-03-01T02:57:57.975Z,101147.84
2019-03-01T03:00:29.236Z,101144.33
2019-03-01T03:02:59.533Z,101145.61
2019-03-01T03:05:29.833Z,101141.23
2019-03-01T03:08:04.100Z,101140.36
2019-03-01T03:10:34.343Z,101142.53
2019-03-01T03:13:09.766Z,101141.70
2019-03-01T03:15:42.603Z,101147.36
2019-03-01T03:18:12.833Z,101145.17
2019-03-01T03:20:43.060Z,101145.17
2019-03-01T03:23:13.132Z,101142.15
2019-03-01T03:25:43.363Z,101144.33
2019-03-01T03:28:13.596Z,101144.35
2019-03-01T03:30:43.667Z,101146.06
2019-03-01T03:33:13.812Z,101148.25
2019-03-01T03:35:44.215Z,101155.21
2019-03-01T03:38:14.363Z,101153.02
2019-03-01T03:40:44.540Z,101150.80
2019-03-01T03:43:14.752Z,101150.30
2019-03-01T03:45:44.907Z,101154.14
2019-03-01T03:48:15.698Z,101155.77
2019-03-01T03:50:45.819Z,101160.89
2019-03-01T03:53:16.045Z,101159.05
2019-03-01T03:55:46.272Z,101159.37
2019-03-01T03:58:16.502Z,101155.70
2019-03-01T04:00:46.727Z,101169.14
2019-03-01T04:03:16.909Z,101166.44
2019-03-01T04:05:47.241Z,101172.92
2019-03-01T04:08:17.632Z,101182.34
2019-03-01T04:10:48.028Z,101186.47
2019-03-01T04:13:18.193Z,101183.29
2019-03-01T04:15:48.432Z,101189.25
2019-03-01T04:18:18.597Z,101199.98
2019-03-01T04:20:48.872Z,101205.45
2019-03-01T04:23:18.935Z,101204.40
2019-03-01T04:25:49.209Z,101205.51
2019-03-01T04:28:19.340Z,101202.34
2019-03-01T04:30:49.516Z,101207.96
2019-03-01T04:33:19.825Z,101210.89
2019-03-01T04:35:50.061Z,101211.23
2019-03-01T04:38:30.092Z,101215.50
2019-03-01T04:41:00.163Z,101222.33
2019-03-01T04:43:30.294Z,101220.47
2019-03-01T04:46:00.378Z,101222.11
2019-03-01T04:48:30.497Z,101224.67
2019-03-01T04:51:00.692Z,101231.50
2019-03-01T04:53:30.843Z,101231.89
2019-03-01T04:56:01.059Z,101229.23
2019-03-01T04:58:31.253Z,101229.23
2019-03-01T05:01:02.119Z,101231.84
2019-03-01T05:03:32.370Z,101230.54
2019-03-01T05:06:02.542Z,101234.92
2019-03-01T05:08:32.739Z,101242.28
2019-03-01T05:11:02.860Z,101232.66
2019-03-01T05:13:33.109Z,101236.92
2019-03-01T05:16:03.366Z,101240.83
2019-03-01T05:18:33.598Z,101246.82
2019-03-01T05:21:03.742Z,101251.13
2019-03-01T05:23:34.003Z,101254.07
2019-03-01T05:26:04.411Z,101260.11
2019-03-01T05:28:34.586Z,101260.05
2019-03-01T05:31:04.725Z,101259.14
2019-03-01T05:33:34.873Z,101262.56
2019-03-01T05:36:05.078Z,101267.24
2019-03-01T05:38:35.357Z,101278.00
2019-03-01T05:41:06.677Z,101279.20
2019-03-01T05:43:36.873Z,101283.06
2019-03-01T05:46:07.114Z,101286.05
2019-03-01T05:48:37.359Z,101289.05
2019-03-01T05:51:07.485Z,101295.50
2019-03-01T05:53:37.557Z,101302.84
2019-03-01T05:56:07.831Z,101302.41
2019-03-01T05:59:00.567Z,101309.34
2019-03-01T06:02:06.824Z,101314.94
2019-03-01T06:04:44.104Z,101316.58
2019-03-01T06:07:54.822Z,101319.13
2019-03-01T06:10:59.605Z,101321.73
2019-03-01T06:13:58.231Z,101324.22
2019-03-01T06:16:57.723Z,101330.67
2019-03-01T06:20:16.017Z,101323.63
2019-03-01T06:23:32.266Z,101333.61
2019-03-01T06:26:28.425Z,101335.84
2019-03-01T06:29:30.090Z,101341.86
2019-03-01T06:32:37.756Z,101345.77
2019-03-01T06:35:47.297Z,101348.80
2019-03-01T06:39:36.825Z,101353.09
2019-03-01T06:42:58.518Z,101346.95
2019-03-01T06:46:10.383Z,101348.02
2019-03-01T06:48:49.400Z,101362.41
2019-03-01T06:51:29.139Z,101364.95
2019-03-01T06:53:59.557Z,101371.84
2019-03-01T06:56:29.867Z,101377.88
2019-03-01T06:59:03.235Z,101370.36
2019-03-01T07:01:42.316Z,101377.05
2019-03-01T07:04:15.921Z,101379.66
2019-03-01T07:06:46.255Z,101388.29
2019-03-01T07:09:16.346Z,101386.54
2019-03-01T07:11:46.588Z,101388.66
2019-03-01T07:14:16.851Z,101389.97
2019-03-01T07:16:47.063Z,101396.48
2019-03-01T07:19:35.381Z,101403.91
2019-03-01T07:22:06.762Z,101407.92
2019-03-01T07:24:39.809Z,101413.58
2019-03-01T07:27:12.162Z,101420.58
2019-03-01T07:29:41.935Z,101422.33
2019-03-01T07:32:12.120Z,101417.98
2019-03-01T07:34:42.175Z,101421.89
2019-03-01T07:37:12.244Z,101426.78
2019-03-01T07:39:42.438Z,101429.03
2019-03-01T07:42:18.753Z,101438.67
2019-03-01T07:44:48.948Z,101437.44
2019-03-01T07:47:19.214Z,101441.47
2019-03-01T07:49:49.324Z,101447.25
2019-03-01T07:52:19.501Z,101442.56
2019-03-01T07:54:52.792Z,101450.41
2019-03-01T07:57:21.692Z,101458.72
2019-03-01T07:59:51.866Z,101459.69
2019-03-01T08:02:22.084Z,101453.72
2019-03-01T08:04:52.205Z,101462.11
2019-03-01T08:07:23.620Z,101457.86
2019-03-01T08:09:54.443Z,101463.51
2019-03-01T08:12:24.758Z,101466.98
2019-03-01T08:14:54.897Z,101475.26
2019-03-01T08:17:27.631Z,101477.04
2019-03-01T08:19:58.716Z,101477.86
2019-03-01T08:22:29.005Z,101486.11
2019-03-01T08:24:59.192Z,101484.76
2019-03-01T08:27:29.390Z,101490.40
2019-03-01T08:29:59.606Z,101495.66
2019-03-01T08:32:30.683Z,101493.88
2019-03-01T08:35:01.798Z,101491.00
2019-03-01T08:37:32.021Z,101498.56
2019-03-01T08:40:02.191Z,101493.52
2019-03-01T08:42:32.732Z,101494.13
2019-03-01T08:45:04.592Z,101500.34
2019-03-01T08:47:34.705Z,101501.73
2019-03-01T08:50:05.914Z,101500.17
2019-03-01T08:52:37.280Z,101513.38
2019-03-01T08:55:10.019Z,101507.78
2019-03-01T08:57:44.247Z,101511.76
2019-03-01T09:00:19.293Z,101511.47
2019-03-01T09:02:50.240Z,101513.27
2019-03-01T09:05:20.497Z,101519.80
2019-03-01T09:07:50.629Z,101520.67
2019-03-01T09:10:20.907Z,101516.75
2019-03-01T09:12:51.383Z,101517.73
2019-03-01T09:15:24.465Z,101523.16
2019-03-01T09:17:54.766Z,101526.70
2019-03-01T09:20:25.261Z,101529.74
2019-03-01T09:22:55.545Z,101532.69
2019-03-01T09:25:25.794Z,101538.39
2019-03-01T09:27:57.591Z,101545.19
2019-03-01T09:30:28.046Z,101545.13
2019-03-01T09:32:58.324Z,101544.53
2019-03-01T09:35:56.756Z,101550.99
2019-03-01T09:38:27.103Z,101548.87
2019-03-01T09:40:57.555Z,101557.58
2019-03-01T09:43:28.669Z,101555.73
2019-03-01T09:45:58.995Z,101558.70
2019-03-01T09:48:29.341Z,101565.63
2019-03-01T09:50:59.607Z,101573.13
2019-03-01T09:53:30.532Z,101578.39
2019-03-01T09:56:01.900Z,101590.08
2019-03-01T09:58:32.121Z,101598.66
2019-03-01T10:01:23.701Z,101590.70
2019-03-01T10:03:56.391Z,101603.63
2019-03-01T10:06:26.735Z,101600.86
2019-03-01T10:08:56.991Z,101599.50
2019-03-01T10:11:27.247Z,101600.48
2019-03-01T10:13:57.540Z,101604.08
2019-03-01T10:16:27.695Z,101600.78
2019-03-01T10:18:58.016Z,101594.86
2019-03-01T10:21:28.686Z,101600.25
2019-03-01T10:23:58.868Z,101599.17
2019-03-01T10:26:29.158Z,101600.71
2019-03-01T10:29:09.301Z,101607.84
2019-03-01T10:31:39.622Z,101619.84
2019-03-01T10:34:09.857Z,101612.36
2019-03-01T10:36:40.078Z,101621.83
2019-03-01T10:39:15.757Z,101619.86
2019-03-01T10:41:46.060Z,101626.98
2019-03-01T10:44:16.262Z,101628.78
2019-03-01T10:46:46.402Z,101627.66
2019-03-01T10:49:16.745Z,101634.20
2019-03-01T10:51:46.875Z,101637.40
2019-03-01T10:54:20.592Z,101636.38
2019-03-01T10:56:50.718Z,101636.05
2019-03-01T10:59:21.094Z,101636.14
2019-03-01T11:01:51.515Z,101639.09
2019-03-01T11:04:21.934Z,101639.09
2019-03-01T11:06:52.250Z,101640.11
2019-03-01T11:09:22.486Z,101642.38
2019-03-01T11:11:52.864Z,101649.30
2019-03-01T11:14:22.985Z,101647.61
2019-03-01T11:16:56.138Z,101654.69
2019-03-01T11:19:26.414Z,101652.06
2019-03-01T11:21:56.647Z,101649.30
2019-03-01T11:24:29.195Z,101651.45
2019-03-01T11:26:59.431Z,101656.27
2019-03-01T11:29:29.634Z,101663.11
2019-03-01T11:31:59.805Z,101657.73
2019-03-01T11:34:29.873Z,101662.43
2019-03-01T11:37:00.222Z,101667.86
2019-03-01T11:39:30.348Z,101664.86
2019-03-01T11:42:00.575Z,101665.62
2019-03-01T11:44:30.727Z,101658.17
2019-03-01T11:47:01.096Z,101669.64
2019-03-01T11:49:31.274Z,101660.78
2019-03-01T11:52:01.508Z,101665.03
2019-03-01T11:54:31.660Z,101661.29
2019-03-01T11:57:01.919Z,101662.69
2019-03-01T11:59:32.115Z,101661.42
2019-03-01T12:02:02.391Z,101660.50
2019-03-01T12:04:32.515Z,101665.30
2019-03-01T12:07:02.754Z,101660.55
2019-03-01T12:09:32.845Z,101666.08
2019-03-01T12:12:03.067Z,101670.79
2019-03-01T12:14:33.280Z,101666.81
2019-03-01T12:17:05.794Z,101670.05
2019-03-01T12:19:35.868Z,101670.19
2019-03-01T12:22:07.080Z,101661.10
2019-03-01T12:24:37.273Z,101676.34
2019-03-01T12:27:10.458Z,101668.61
2019-03-01T12:29:40.722Z,101660.35
2019-03-01T12:32:10.840Z,101659.12
2019-03-01T12:34:40.974Z,101659.20
2019-03-01T12:37:11.202Z,101664.44
2019-03-01T12:39:41.487Z,101669.77
2019-03-01T12:42:11.722Z,101666.23
2019-03-01T12:44:41.966Z,101661.51
2019-03-01T12:47:12.059Z,101657.23
2019-03-01T12:49:42.204Z,101661.92
2019-03-01T12:52:12.329Z,101658.91
2019-03-01T12:54:43.536Z,101660.64
2019-03-01T12:57:13.666Z,101652.67
2019-03-01T12:59:43.823Z,101657.63
2019-03-01T13:02:13.942Z,101660.72
2019-03-01T13:04:44.019Z,101675.34
2019-03-01T13:07:14.180Z,101665.44
2019-03-01T13:09:44.319Z,101660.71
2019-03-01T13:12:14.545Z,101655.31
2019-03-01T13:14:44.786Z,101650.28
2019-03-01T13:17:16.481Z,101658.53
2019-03-01T13:19:46.825Z,101663.09
2019-03-01T13:22:17.063Z,101662.03
2019-03-01T13:24:50.397Z,101665.36
2019-03-01T13:27:19.205Z,101684.72
2019-03-01T13:29:49.519Z,101685.46
2019-03-01T13:32:19.955Z,101685.97
2019-03-01T13:34:51.713Z,101670.29
2019-03-01T13:37:21.999Z,101683.12
2019-03-01T13:39:52.243Z,101675.77
2019-03-01T13:42:22.427Z,101672.39
2019-03-01T13:44:52.644Z,101673.48
2019-03-01T13:47:22.854Z,101667.16
2019-03-01T13:49:52.954Z,101654.77
2019-03-01T13:52:23.114Z,101659.59
2019-03-01T13:54:53.235Z,101642.19
2019-03-01T13:57:23.686Z,101636.03
2019-03-01T13:59:54.254Z,101644.58
2019-03-01T14:02:27.753Z,101645.99
2019-03-01T14:04:58.137Z,101653.00
2019-03-01T14:07:28.464Z,101656.42
2019-03-01T14:10:00.810Z,101651.06
2019-03-01T14:12:34.139Z,101649.28
2019-03-01T14:15:03.880Z,101657.12
2019-03-01T14:17:34.395Z,101659.17
2019-03-01T14:20:05.095Z,101654.60
2019-03-01T14:22:35.742Z,101653.59
2019-03-01T14:25:06.815Z,101651.56
2019-03-01T14:27:37.096Z,101663.90
2019-03-01T14:30:10.562Z,101663.02
2019-03-01T14:32:40.641Z,101675.34
2019-03-01T14:35:11.242Z,101675.34
2019-03-01T14:37:41.449Z,101675.47
2019-03-01T14:40:13.108Z,101674.73
2019-03-01T14:42:46.496Z,101678.48
2019-03-01T14:45:19.105Z,101677.93
2019-03-01T14:47:49.357Z,101676.98
2019-03-01T14:50:21.704Z,101684.00
2019-03-01T14:52:56.660Z,101685.91
2019-03-01T14:55:28.787Z,101693.98
2019-03-01T14:58:10.419Z,101689.22
2019-03-01T15:00:52.609Z,101683.44
2019-03-01T15:03:41.065Z,101681.06
2019-03-01T15:06:11.625Z,101694.08
2019-03-01T15:08:44.119Z,101689.80
2019-03-01T15:11:18.108Z,101699.38
2019-03-01T15:13:50.065Z,101698.80
2019-03-01T15:16:20.285Z,101693.62
2019-03-01T15:18:50.426Z,101693.69
2019-03-01T15:21:20.750Z,101696.78
2019-03-01T15:23:50.871Z,101698.80
2019-03-01T15:26:23.101Z,101704.55
2019-03-01T15:28:56.008Z,101708.52
2019-03-01T15:31:26.419Z,101710.39
2019-03-01T15:33:56.645Z,101715.06
2019-03-01T15:36:26.858Z,101720.70
2019-03-01T15:38:57.110Z,101711.58
2019-03-01T15:41:27.213Z,101717.59
2019-03-01T15:43:57.370Z,101720.83
2019-03-01T15:46:28.730Z,101724.01
2019-03-01T15:48:58.893Z,101724.69
2019-03-01T15:51:29.069Z,101726.21
2019-03-01T15:54:01.073Z,101729.65
2019-03-01T15:56:31.084Z,101728.81
2019-03-01T15:59:01.205Z,101723.05
2019-03-01T16:01:31.465Z,101728.19
2019-03-01T16:04:01.687Z,101735.45
2019-03-01T16:06:31.895Z,101737.94
2019-03-01T16:09:02.066Z,101732.65
2019-03-01T16:11:34.653Z,101737.67
2019-03-01T16:14:05.095Z,101747.54
2019-03-01T16:16:35.520Z,101740.31
2019-03-01T16:19:07.180Z,101748.42
2019-03-01T16:21:39.761Z,101753.11
2019-03-01T16:24:10.026Z,101756.97
2019-03-01T16:26:40.465Z,101757.45
2019-03-01T16:29:11.111Z,101752.63
2019-03-01T16:31:41.628Z,101747.77
2019-03-01T16:34:12.282Z,101763.34
2019-03-01T16:36:45.993Z,101761.05
2019-03-01T16:39:16.656Z,101762.73
2019-03-01T16:41:47.028Z,101773.02
2019-03-01T16:44:17.565Z,101782.05
2019-03-01T16:49:23.612Z,101779.38
2019-03-01T16:51:54.004Z,101775.23
2019-03-01T16:54:24.789Z,101775.06
2019-03-01T16:56:55.304Z,101775.38
2019-03-01T16:59:25.944Z,101776.13
2019-03-01T17:01:56.586Z,101784.34
2019-03-01T17:04:28.191Z,101784.27
2019-03-01T17:06:58.796Z,101782.43
2019-03-01T17:09:29.287Z,101780.13
2019-03-01T17:11:59.890Z,101779.06
2019-03-01T17:14:30.196Z,101784.56
2019-03-01T17:17:00.724Z,101788.83
2019-03-01T17:19:30.961Z,101789.15
2019-03-01T17:22:01.111Z,101789.45
2019-03-01T17:24:31.815Z,101769.92
2019-03-01T17:27:05.509Z,101795.04
2019-03-01T17:29:35.785Z,101797.59
2019-03-01T17:32:07.308Z,101800.56
2019-03-01T17:34:37.784Z,101800.50
2019-03-01T17:37:07.977Z,101800.42
2019-03-01T17:39:38.565Z,101798.25
2019-03-01T17:42:08.780Z,101801.25
2019-03-01T17:44:41.345Z,101799.94
2019-03-01T17:47:10.881Z,101806.07
2019-03-01T17:49:41.072Z,101804.28
2019-03-01T17:52:11.282Z,101800.37
2019-03-01T17:54:41.435Z,101798.62
2019-03-01T17:57:11.676Z,101797.31
2019-03-01T17:59:44.586Z,101802.03
2019-03-01T18:02:14.954Z,101809.85
2019-03-01T18:04:45.738Z,101805.94
2019-03-01T18:07:16.033Z,101803.72
2019-03-01T18:09:46.175Z,101806.81
2019-03-01T18:12:17.495Z,101804.63
2019-03-01T18:14:48.371Z,101805.03
2019-03-01T18:17:18.550Z,101804.58
2019-03-01T18:19:48.880Z,101807.64
2019-03-01T18:22:19.130Z,101813.34
2019-03-01T18:24:49.859Z,101805.03
2019-03-01T18:27:21.054Z,101809.31
2019-03-01T18:29:51.235Z,101808.92
2019-03-01T18:32:21.447Z,101807.61
2019-03-01T18:34:51.725Z,101810.22
2019-03-01T18:37:21.855Z,101805.88
2019-03-01T18:39:52.066Z,101801.09
2019-03-01T18:42:22.355Z,101803.22
2019-03-01T18:44:52.513Z,101795.69
2019-03-01T18:47:22.682Z,101807.93
2019-03-01T18:49:55.194Z,101797.81
2019-03-01T18:52:24.918Z,101796.11
2019-03-01T18:54:55.109Z,101800.84
2019-03-01T18:57:25.341Z,101803.00
2019-03-01T18:59:56.472Z,101808.59
2019-03-01T19:02:27.630Z,101809.41
2019-03-01T19:05:04.215Z,101806.73
2019-03-01T19:07:32.291Z,101808.88
2019-03-01T19:10:02.654Z,101812.31
2019-03-01T19:12:32.819Z,101814.92
2019-03-01T19:15:03.100Z,101809.25
2019-03-01T19:17:33.411Z,101813.11
2019-03-01T19:20:05.749Z,101820.05
2019-03-01T19:22:35.667Z,101816.96
2019-03-01T19:25:07.327Z,101817.81
2019-03-01T19:27:37.574Z,101821.67
2019-03-01T19:30:10.533Z,101822.95
2019-03-01T19:32:41.008Z,101817.67
2019-03-01T19:35:11.593Z,101812.77
2019-03-01T19:37:41.808Z,101819.20
2019-03-01T19:40:14.641Z,101826.55
2019-03-01T19:42:44.925Z,101823.04
2019-03-01T19:45:16.461Z,101824.70
2019-03-01T19:47:46.846Z,101822.47
2019-03-01T19:50:21.697Z,101828.11
2019-03-01T19:52:52.688Z,101831.08
2019-03-01T19:55:23.002Z,101832.70
2019-03-01T19:57:53.309Z,101838.27
2019-03-01T20:00:24.344Z,101840.45
2019-03-01T20:02:54.625Z,101840.82
2019-03-01T20:05:27.959Z,101840.73
2019-03-01T20:07:58.109Z,101835.68
2019-03-01T20:13:16.442Z,101853.47
2019-03-01T20:15:47.431Z,101852.38
2019-03-01T20:18:17.756Z,101850.56
2019-03-01T20:20:48.142Z,101852.69
2019-03-01T20:23:18.293Z,101850.92
2019-03-01T20:25:51.005Z,101853.53
2019-03-01T20:28:20.364Z,101852.23
2019-03-01T20:30:50.607Z,101853.05
2019-03-01T20:33:23.438Z,101852.11
2019-03-01T20:35:52.812Z,101851.29
2019-03-01T20:38:23.049Z,101859.92
2019-03-01T20:40:53.221Z,101852.95
2019-03-01T20:43:23.878Z,101847.26
2019-03-01T20:45:54.401Z,101845.95
2019-03-01T20:48:25.672Z,101844.63
2019-03-01T20:50:57.209Z,101846.44
2019-03-01T20:53:27.611Z,101847.75
2019-03-01T20:55:58.157Z,101841.59
2019-03-01T20:58:28.711Z,101844.72
2019-03-01T21:01:01.928Z,101838.98
2019-03-01T21:03:31.412Z,101841.69
2019-03-01T21:06:04.646Z,101844.34
2019-03-01T21:08:34.307Z,101841.23
2019-03-01T21:11:05.039Z,101837.89
2019-03-01T21:13:35.565Z,101844.44
2019-03-01T21:16:06.921Z,101837.47
2019-03-01T21:18:37.442Z,101843.56
2019-03-01T21:21:07.928Z,101835.29
2019-03-01T21:23:38.302Z,101828.28
2019-03-01T21:26:08.598Z,101833.50
2019-03-01T21:28:38.663Z,101831.77
2019-03-01T21:31:09.262Z,101831.32
2019-03-01T21:33:39.444Z,101829.08
2019-03-01T21:36:09.598Z,101829.93
2019-03-01T21:38:39.888Z,101833.33
2019-03-01T21:41:11.072Z,101838.91
2019-03-01T21:43:41.323Z,101842.32
2019-03-01T21:46:11.468Z,101843.17
2019-03-01T21:48:41.677Z,101840.08
2019-03-01T21:51:14.867Z,101845.66
2019-03-01T21:53:43.612Z,101845.27
2019-03-01T21:56:13.877Z,101848.69
2019-03-01T21:58:44.103Z,101849.56
2019-03-01T22:01:14.345Z,101855.27
2019-03-01T22:03:44.579Z,101856.08
2019-03-01T22:06:14.920Z,101853.47
2019-03-01T22:08:48.683Z,101853.84
2019-03-01T22:11:17.985Z,101851.50
2019-03-01T22:13:48.832Z,101856.84
2019-03-01T22:16:19.551Z,101858.59
2019-03-01T22:18:50.328Z,101859.90
2019-03-01T22:21:22.817Z,101861.14
2019-03-01T22:23:53.026Z,101859.80
2019-03-01T22:26:23.573Z,101861.56
2019-03-01T22:28:54.223Z,101859.83
2019-03-01T22:31:24.846Z,101863.35
2019-03-01T22:33:55.867Z,101865.47
2019-03-01T22:36:27.844Z,101869.89
2019-03-01T22:38:58.348Z,101870.32
2019-03-01T22:41:28.958Z,101870.32
2019-03-01T22:44:01.766Z,101864.66
2019-03-01T22:46:31.698Z,101865.11
2019-03-01T22:49:02.304Z,101862.05
2019-03-01T22:51:32.891Z,101864.66
2019-03-01T22:54:03.060Z,101867.72
2019-03-01T22:56:33.238Z,101859.83
2019-03-01T22:59:03.302Z,101856.29
2019-03-01T23:01:41.487Z,101859.31
2019-03-01T23:04:12.145Z,101860.17
2019-03-01T23:06:42.261Z,101859.68
2019-03-01T23:09:16.466Z,101859.68
2019-03-01T23:11:46.678Z,101853.53
2019-03-01T23:14:17.071Z,101860.05
2019-03-01T23:16:50.656Z,101850.37
2019-03-01T23:19:19.313Z,101850.47
2019-03-01T23:21:49.497Z,101852.59
2019-03-01T23:24:19.788Z,101852.59
2019-03-01T23:26:50.116Z,101853.86
2019-03-01T23:29:20.498Z,101849.47
2019-03-01T23:31:50.870Z,101853.80
2019-03-01T23:34:21.101Z,101840.32
2019-03-01T23:36:51.382Z,101840.69
2019-03-01T23:39:24.619Z,101840.63
2019-03-01T23:41:55.619Z,101841.50
2019-03-01T23:44:27.283Z,101838.44
2019-03-01T23:46:59.495Z,101834.89
2019-03-01T23:49:29.350Z,101834.38
2019-03-01T23:51:59.560Z,101838.71
2019-03-01T23:54:29.815Z,101827.81
2019-03-01T23:57:01.991Z,101836.92
2019-03-01T23:59:32.167Z,101836.86
